sensor_id;sensor_type;location;lat;lon;timestamp;temperature;humidity
3986;DHT22;2007;48.750;9.278;2023-03-12T00:00:12;13.50;49.50
3986;DHT22;2007;48.750;9.278;2023-03-12T00:02:42;13.60;49.60
3986;DHT22;2007;48.750;9.278;2023-03-12T00:05:10;13.50;49.50
3986;DHT22;2007;48.750;9.278;2023-03-12T00:07:38;13.60;49.60
3986;DHT22;2007;48.750;9.278;2023-03-12T00:10:07;13.50;49.50
3986;DHT22;2007;48.750;9.278;2023-03-12T00:12:35;13.50;49.50
3986;DHT22;2007;48.750;9.278;2023-03-12T00:15:04;13.50;49.50
3986;DHT22;2007;48.750;9.278;2023-03-12T00:17:32;13.50;49.50
3986;DHT22;2007;48.750;9.278;2023-03-12T00:20:01;13.50;49.50
3986;DHT22;2007;48.750;9.278;2023-03-12T00:22:30;13.50;49.50
3986;DHT22;2007;48.750;9.278;2023-03-12T00:24:58;13.50;49.50
3986;DHT22;2007;48.750;9.278;2023-03-12T00:27:27;13.50;49.50
3986;DHT22;2007;48.750;9.278;2023-03-12T00:29:55;13.50;49.50
3986;DHT22;2007;48.750;9.278;2023-03-12T00:32:24;13.50;49.50
3986;DHT22;2007;48.750;9.278;2023-03-12T00:34:53;13.50;49.50
3986;DHT22;2007;48.750;9.278;2023-03-12T00:37:23;13.50;49.50
3986;DHT22;2007;48.750;9.278;2023-03-12T00:39:51;13.50;49.50
3986;DHT22;2007;48.750;9.278;2023-03-12T00:42:19;13.50;49.50
3986;DHT22;2007;48.750;9.278;2023-03-12T00:44:47;13.50;49.50
3986;DHT22;2007;48.750;9.278;2023-03-12T00:47:15;13.50;49.50
3986;DHT22;2007;48.750;9.278;2023-03-12T00:49:42;13.50;49.60
3986;DHT22;2007;48.750;9.278;2023-03-12T00:52:10;13.50;49.50
3986;DHT22;2007;48.750;9.278;2023-03-12T00:54:40;13.50;49.50
3986;DHT22;2007;48.750;9.278;2023-03-12T00:57:07;13.50;49.50
3986;DHT22;2007;48.750;9.278;2023-03-12T00:59:35;13.50;49.50
3986;DHT22;2007;48.750;9.278;2023-03-12T01:02:06;13.50;49.50
3986;DHT22;2007;48.750;9.278;2023-03-12T01:04:34;13.50;49.50
3986;DHT22;2007;48.750;9.278;2023-03-12T01:07:02;13.50;49.50
3986;DHT22;2007;48.750;9.278;2023-03-12T01:09:30;13.50;49.50
3986;DHT22;2007;48.750;9.278;2023-03-12T01:11:59;13.50;49.50
3986;DHT22;2007;48.750;9.278;2023-03-12T01:14:27;13.50;49.50
3986;DHT22;2007;48.750;9.278;2023-03-12T01:16:55;13.50;49.50
3986;DHT22;2007;48.750;9.278;2023-03-12T01:19:23;13.50;49.50
3986;DHT22;2007;48.750;9.278;2023-03-12T01:21:50;13.50;49.50
3986;DHT22;2007;48.750;9.278;2023-03-12T01:24:18;13.50;49.50
3986;DHT22;2007;48.750;9.278;2023-03-12T01:26:46;13.50;49.50
3986;DHT22;2007;48.750;9.278;2023-03-12T01:29:15;13.50;49.50
3986;DHT22;2007;48.750;9.278;2023-03-12T01:31:43;13.50;49.50
3986;DHT22;2007;48.750;9.278;2023-03-12T01:34:11;13.50;49.50
3986;DHT22;2007;48.750;9.278;2023-03-12T01:36:39;13.50;49.50
3986;DHT22;2007;48.750;9.278;2023-03-12T01:39:07;13.50;49.50
3986;DHT22;2007;48.750;9.278;2023-03-12T01:41:35;13.40;49.40
3986;DHT22;2007;48.750;9.278;2023-03-12T01:44:04;13.50;49.50
3986;DHT22;2007;48.750;9.278;2023-03-12T01:46:36;13.50;49.50
3986;DHT22;2007;48.750;9.278;2023-03-12T01:49:07;13.40;49.40
3986;DHT22;2007;48.750;9.278;2023-03-12T01:51:39;13.40;49.40
3986;DHT22;2007;48.750;9.278;2023-03-12T01:54:12;13.40;49.40
3986;DHT22;2007;48.750;9.278;2023-03-12T01:56:42;13.40;49.40
3986;DHT22;2007;48.750;9.278;2023-03-12T01:59:14;13.40;49.40
3986;DHT22;2007;48.750;9.278;2023-03-12T02:01:44;13.40;49.40
3986;DHT22;2007;48.750;9.278;2023-03-12T02:04:13;13.40;49.40
3986;DHT22;2007;48.750;9.278;2023-03-12T02:06:45;13.40;49.40
3986;DHT22;2007;48.750;9.278;2023-03-12T02:09:15;13.40;49.40
3986;DHT22;2007;48.750;9.278;2023-03-12T02:11:45;13.40;49.40
3986;DHT22;2007;48.750;9.278;2023-03-12T02:14:13;13.40;49.40
3986;DHT22;2007;48.750;9.278;2023-03-12T02:16:43;13.40;49.40
3986;DHT22;2007;48.750;9.278;2023-03-12T02:19:17;13.40;49.40
3986;DHT22;2007;48.750;9.278;2023-03-12T02:21:47;13.40;49.40
3986;DHT22;2007;48.750;9.278;2023-03-12T02:24:21;13.40;49.40
3986;DHT22;2007;48.750;9.278;2023-03-12T02:26:52;13.40;49.40
3986;DHT22;2007;48.750;9.278;2023-03-12T02:29:20;13.40;49.40
3986;DHT22;2007;48.750;9.278;2023-03-12T02:31:51;13.40;49.40
3986;DHT22;2007;48.750;9.278;2023-03-12T02:34:20;13.40;49.40
3986;DHT22;2007;48.750;9.278;2023-03-12T02:36:48;13.40;49.40
3986;DHT22;2007;48.750;9.278;2023-03-12T02:39:16;13.40;49.40
3986;DHT22;2007;48.750;9.278;2023-03-12T02:41:47;13.40;49.40
3986;DHT22;2007;48.750;9.278;2023-03-12T02:44:21;13.40;49.40
3986;DHT22;2007;48.750;9.278;2023-03-12T02:46:52;13.40;49.40
3986;DHT22;2007;48.750;9.278;2023-03-12T02:49:21;13.40;49.40
3986;DHT22;2007;48.750;9.278;2023-03-12T02:51:50;13.40;49.40
3986;DHT22;2007;48.750;9.278;2023-03-12T02:54:19;13.40;49.40
3986;DHT22;2007;48.750;9.278;2023-03-12T02:56:48;13.40;49.40
3986;DHT22;2007;48.750;9.278;2023-03-12T02:59:17;13.40;49.40
3986;DHT22;2007;48.750;9.278;2023-03-12T03:01:53;13.40;49.40
3986;DHT22;2007;48.750;9.278;2023-03-12T03:04:21;13.40;49.40
3986;DHT22;2007;48.750;9.278;2023-03-12T03:06:49;13.40;49.40
3986;DHT22;2007;48.750;9.278;2023-03-12T03:09:18;13.40;49.40
3986;DHT22;2007;48.750;9.278;2023-03-12T03:11:47;13.40;49.40
3986;DHT22;2007;48.750;9.278;2023-03-12T03:14:16;13.40;49.40
3986;DHT22;2007;48.750;9.278;2023-03-12T03:16:44;13.30;49.30
3986;DHT22;2007;48.750;9.278;2023-03-12T03:19:13;13.30;49.30
3986;DHT22;2007;48.750;9.278;2023-03-12T03:21:41;13.30;49.30
3986;DHT22;2007;48.750;9.278;2023-03-12T03:24:09;13.40;49.40
3986;DHT22;2007;48.750;9.278;2023-03-12T03:26:37;13.30;49.30
3986;DHT22;2007;48.750;9.278;2023-03-12T03:29:05;13.30;50.00
3986;DHT22;2007;48.750;9.278;2023-03-12T03:31:33;13.30;49.30
3986;DHT22;2007;48.750;9.278;2023-03-12T03:34:02;13.30;49.30
3986;DHT22;2007;48.750;9.278;2023-03-12T03:36:31;13.30;49.30
3986;DHT22;2007;48.750;9.278;2023-03-12T03:38:59;13.30;49.30
3986;DHT22;2007;48.750;9.278;2023-03-12T03:41:27;13.30;49.30
3986;DHT22;2007;48.750;9.278;2023-03-12T03:43:56;13.30;49.60
3986;DHT22;2007;48.750;9.278;2023-03-12T03:46:25;13.30;49.30
3986;DHT22;2007;48.750;9.278;2023-03-12T03:48:53;13.30;49.40
3986;DHT22;2007;48.750;9.278;2023-03-12T03:51:21;13.30;49.30
3986;DHT22;2007;48.750;9.278;2023-03-12T03:53:50;13.30;49.30
3986;DHT22;2007;48.750;9.278;2023-03-12T03:56:18;13.30;49.30
3986;DHT22;2007;48.750;9.278;2023-03-12T03:58:46;13.30;49.30
3986;DHT22;2007;48.750;9.278;2023-03-12T04:01:14;13.30;49.30
3986;DHT22;2007;48.750;9.278;2023-03-12T04:03:42;13.30;49.30
3986;DHT22;2007;48.750;9.278;2023-03-12T04:06:11;13.30;49.30
3986;DHT22;2007;48.750;9.278;2023-03-12T04:08:39;13.30;49.30
3986;DHT22;2007;48.750;9.278;2023-03-12T04:11:10;13.30;49.30
3986;DHT22;2007;48.750;9.278;2023-03-12T04:13:38;13.30;49.30
3986;DHT22;2007;48.750;9.278;2023-03-12T04:16:06;13.30;49.30
3986;DHT22;2007;48.750;9.278;2023-03-12T04:18:35;13.30;49.30
3986;DHT22;2007;48.750;9.278;2023-03-12T04:21:04;13.30;49.30
3986;DHT22;2007;48.750;9.278;2023-03-12T04:23:36;13.30;49.30
3986;DHT22;2007;48.750;9.278;2023-03-12T04:26:05;13.30;49.30
3986;DHT22;2007;48.750;9.278;2023-03-12T04:28:35;13.30;49.30
3986;DHT22;2007;48.750;9.278;2023-03-12T04:31:05;13.30;49.30
3986;DHT22;2007;48.750;9.278;2023-03-12T04:33:35;13.30;49.30
3986;DHT22;2007;48.750;9.278;2023-03-12T04:36:04;13.30;49.30
3986;DHT22;2007;48.750;9.278;2023-03-12T04:38:33;13.30;49.40
3986;DHT22;2007;48.750;9.278;2023-03-12T04:41:02;13.30;49.30
3986;DHT22;2007;48.750;9.278;2023-03-12T04:43:31;13.20;49.30
3986;DHT22;2007;48.750;9.278;2023-03-12T04:46:01;13.20;49.30
3986;DHT22;2007;48.750;9.278;2023-03-12T04:48:30;13.20;49.30
3986;DHT22;2007;48.750;9.278;2023-03-12T04:50:58;13.30;49.40
3986;DHT22;2007;48.750;9.278;2023-03-12T04:53:26;13.20;49.30
3986;DHT22;2007;48.750;9.278;2023-03-12T04:55:54;13.20;49.30
3986;DHT22;2007;48.750;9.278;2023-03-12T04:58:22;13.20;49.30
3986;DHT22;2007;48.750;9.278;2023-03-12T05:00:50;13.20;49.30
3986;DHT22;2007;48.750;9.278;2023-03-12T05:03:19;13.20;49.30
3986;DHT22;2007;48.750;9.278;2023-03-12T05:05:47;13.20;49.30
3986;DHT22;2007;48.750;9.278;2023-03-12T05:08:15;13.20;49.30
3986;DHT22;2007;48.750;9.278;2023-03-12T05:10:43;13.20;49.40
3986;DHT22;2007;48.750;9.278;2023-03-12T05:13:13;13.20;49.40
3986;DHT22;2007;48.750;9.278;2023-03-12T05:15:42;13.20;49.30
3986;DHT22;2007;48.750;9.278;2023-03-12T05:18:10;13.20;49.30
3986;DHT22;2007;48.750;9.278;2023-03-12T05:20:39;13.20;49.30
3986;DHT22;2007;48.750;9.278;2023-03-12T05:23:07;13.20;49.30
3986;DHT22;2007;48.750;9.278;2023-03-12T05:25:37;13.20;49.30
3986;DHT22;2007;48.750;9.278;2023-03-12T05:28:05;13.20;49.30
3986;DHT22;2007;48.750;9.278;2023-03-12T05:30:34;13.20;49.30
3986;DHT22;2007;48.750;9.278;2023-03-12T05:33:02;13.20;49.40
3986;DHT22;2007;48.750;9.278;2023-03-12T05:35:29;13.20;49.30
3986;DHT22;2007;48.750;9.278;2023-03-12T05:37:59;13.20;49.30
3986;DHT22;2007;48.750;9.278;2023-03-12T05:40:27;13.20;49.40
3986;DHT22;2007;48.750;9.278;2023-03-12T05:42:55;13.20;49.30
3986;DHT22;2007;48.750;9.278;2023-03-12T05:45:23;13.20;49.30
3986;DHT22;2007;48.750;9.278;2023-03-12T05:47:51;13.20;49.40
3986;DHT22;2007;48.750;9.278;2023-03-12T05:50:18;13.20;49.40
3986;DHT22;2007;48.750;9.278;2023-03-12T05:52:46;13.20;49.40
3986;DHT22;2007;48.750;9.278;2023-03-12T05:55:16;13.20;49.40
3986;DHT22;2007;48.750;9.278;2023-03-12T05:57:44;13.20;49.40
3986;DHT22;2007;48.750;9.278;2023-03-12T06:00:13;13.20;49.40
3986;DHT22;2007;48.750;9.278;2023-03-12T06:02:42;13.20;49.40
3986;DHT22;2007;48.750;9.278;2023-03-12T06:05:10;13.20;49.40
3986;DHT22;2007;48.750;9.278;2023-03-12T06:07:38;13.20;49.40
3986;DHT22;2007;48.750;9.278;2023-03-12T06:10:07;13.20;49.40
3986;DHT22;2007;48.750;9.278;2023-03-12T06:12:37;13.20;49.40
3986;DHT22;2007;48.750;9.278;2023-03-12T06:15:05;13.20;49.40
3986;DHT22;2007;48.750;9.278;2023-03-12T06:17:33;13.20;49.40
3986;DHT22;2007;48.750;9.278;2023-03-12T06:20:01;13.10;49.30
3986;DHT22;2007;48.750;9.278;2023-03-12T06:22:30;13.10;49.30
3986;DHT22;2007;48.750;9.278;2023-03-12T06:24:57;13.10;49.30
3986;DHT22;2007;48.750;9.278;2023-03-12T06:27:25;13.10;49.30
3986;DHT22;2007;48.750;9.278;2023-03-12T06:29:55;13.10;49.30
3986;DHT22;2007;48.750;9.278;2023-03-12T06:32:23;13.10;49.30
3986;DHT22;2007;48.750;9.278;2023-03-12T06:34:51;13.10;49.30
3986;DHT22;2007;48.750;9.278;2023-03-12T06:37:19;13.10;49.30
3986;DHT22;2007;48.750;9.278;2023-03-12T06:39:47;13.10;49.30
3986;DHT22;2007;48.750;9.278;2023-03-12T06:42:15;13.10;49.30
3986;DHT22;2007;48.750;9.278;2023-03-12T06:44:44;13.10;49.30
3986;DHT22;2007;48.750;9.278;2023-03-12T06:47:13;13.10;49.40
3986;DHT22;2007;48.750;9.278;2023-03-12T06:49:43;13.10;49.30
3986;DHT22;2007;48.750;9.278;2023-03-12T06:52:11;13.10;49.90
3986;DHT22;2007;48.750;9.278;2023-03-12T06:54:39;13.10;49.30
3986;DHT22;2007;48.750;9.278;2023-03-12T06:57:07;13.10;50.00
3986;DHT22;2007;48.750;9.278;2023-03-12T06:59:35;13.10;49.30
3986;DHT22;2007;48.750;9.278;2023-03-12T07:02:03;13.10;49.30
3986;DHT22;2007;48.750;9.278;2023-03-12T07:04:33;13.10;49.40
3986;DHT22;2007;48.750;9.278;2023-03-12T07:07:01;13.10;49.30
3986;DHT22;2007;48.750;9.278;2023-03-12T07:09:30;13.10;49.40
3986;DHT22;2007;48.750;9.278;2023-03-12T07:11:58;13.10;49.40
3986;DHT22;2007;48.750;9.278;2023-03-12T07:14:26;13.10;49.40
3986;DHT22;2007;48.750;9.278;2023-03-12T07:16:53;13.10;49.40
3986;DHT22;2007;48.750;9.278;2023-03-12T07:19:22;13.10;49.40
3986;DHT22;2007;48.750;9.278;2023-03-12T07:21:51;13.10;49.40
3986;DHT22;2007;48.750;9.278;2023-03-12T07:24:19;13.10;49.40
3986;DHT22;2007;48.750;9.278;2023-03-12T07:26:47;13.10;49.40
3986;DHT22;2007;48.750;9.278;2023-03-12T07:29:15;13.10;49.40
3986;DHT22;2007;48.750;9.278;2023-03-12T07:31:43;13.10;49.40
3986;DHT22;2007;48.750;9.278;2023-03-12T07:34:11;13.10;49.40
3986;DHT22;2007;48.750;9.278;2023-03-12T07:36:39;13.10;49.40
3986;DHT22;2007;48.750;9.278;2023-03-12T07:39:08;13.10;49.40
3986;DHT22;2007;48.750;9.278;2023-03-12T07:41:36;13.10;49.40
3986;DHT22;2007;48.750;9.278;2023-03-12T07:44:04;13.10;50.10
3986;DHT22;2007;48.750;9.278;2023-03-12T07:46:32;13.10;49.40
3986;DHT22;2007;48.750;9.278;2023-03-12T07:49:00;13.00;49.30
3986;DHT22;2007;48.750;9.278;2023-03-12T07:51:28;13.00;49.40
3986;DHT22;2007;48.750;9.278;2023-03-12T07:53:56;13.00;49.40
3986;DHT22;2007;48.750;9.278;2023-03-12T07:56:25;13.00;49.30
3986;DHT22;2007;48.750;9.278;2023-03-12T07:58:53;13.00;49.30
3986;DHT22;2007;48.750;9.278;2023-03-12T08:01:21;13.00;49.30
3986;DHT22;2007;48.750;9.278;2023-03-12T08:03:51;13.00;49.40
3986;DHT22;2007;48.750;9.278;2023-03-12T08:06:19;13.00;49.40
3986;DHT22;2007;48.750;9.278;2023-03-12T08:08:47;13.00;49.40
3986;DHT22;2007;48.750;9.278;2023-03-12T08:11:15;13.00;49.40
3986;DHT22;2007;48.750;9.278;2023-03-12T08:13:44;13.00;49.40
3986;DHT22;2007;48.750;9.278;2023-03-12T08:16:12;13.00;49.40
3986;DHT22;2007;48.750;9.278;2023-03-12T08:18:42;13.00;49.40
3986;DHT22;2007;48.750;9.278;2023-03-12T08:21:10;13.00;49.40
3986;DHT22;2007;48.750;9.278;2023-03-12T08:23:42;13.00;49.40
3986;DHT22;2007;48.750;9.278;2023-03-12T08:26:10;13.00;49.40
3986;DHT22;2007;48.750;9.278;2023-03-12T08:28:38;13.00;49.40
3986;DHT22;2007;48.750;9.278;2023-03-12T08:31:07;13.00;49.40
3986;DHT22;2007;48.750;9.278;2023-03-12T08:33:36;13.00;49.40
3986;DHT22;2007;48.750;9.278;2023-03-12T08:36:07;13.00;49.40
3986;DHT22;2007;48.750;9.278;2023-03-12T08:38:35;13.00;49.40
3986;DHT22;2007;48.750;9.278;2023-03-12T08:41:03;13.00;49.40
3986;DHT22;2007;48.750;9.278;2023-03-12T08:43:31;13.00;49.40
3986;DHT22;2007;48.750;9.278;2023-03-12T08:46:00;13.00;49.50
3986;DHT22;2007;48.750;9.278;2023-03-12T08:48:31;13.00;49.40
3986;DHT22;2007;48.750;9.278;2023-03-12T08:50:59;13.00;49.50
3986;DHT22;2007;48.750;9.278;2023-03-12T08:53:31;13.00;49.50
3986;DHT22;2007;48.750;9.278;2023-03-12T08:55:59;13.00;49.50
3986;DHT22;2007;48.750;9.278;2023-03-12T08:58:28;13.00;49.50
3986;DHT22;2007;48.750;9.278;2023-03-12T09:00:56;13.00;49.50
3986;DHT22;2007;48.750;9.278;2023-03-12T09:03:25;13.00;49.50
3986;DHT22;2007;48.750;9.278;2023-03-12T09:06:04;13.00;49.50
3986;DHT22;2007;48.750;9.278;2023-03-12T09:08:32;13.00;49.50
3986;DHT22;2007;48.750;9.278;2023-03-12T09:11:00;13.00;50.20
3986;DHT22;2007;48.750;9.278;2023-03-12T09:13:28;13.00;49.60
3986;DHT22;2007;48.750;9.278;2023-03-12T09:16:16;13.00;49.50
3986;DHT22;2007;48.750;9.278;2023-03-12T09:18:44;13.00;49.60
3986;DHT22;2007;48.750;9.278;2023-03-12T09:21:13;13.00;49.60
3986;DHT22;2007;48.750;9.278;2023-03-12T09:23:41;13.00;49.60
3986;DHT22;2007;48.750;9.278;2023-03-12T09:26:10;13.00;49.60
3986;DHT22;2007;48.750;9.278;2023-03-12T09:28:38;12.90;49.50
3986;DHT22;2007;48.750;9.278;2023-03-12T09:31:06;13.00;49.60
3986;DHT22;2007;48.750;9.278;2023-03-12T09:33:34;13.00;49.60
3986;DHT22;2007;48.750;9.278;2023-03-12T09:36:02;13.00;49.60
3986;DHT22;2007;48.750;9.278;2023-03-12T09:38:32;13.00;49.60
3986;DHT22;2007;48.750;9.278;2023-03-12T09:41:03;13.00;49.60
3986;DHT22;2007;48.750;9.278;2023-03-12T09:43:35;13.00;49.60
3986;DHT22;2007;48.750;9.278;2023-03-12T09:46:10;13.00;49.60
3986;DHT22;2007;48.750;9.278;2023-03-12T09:48:40;13.00;49.60
3986;DHT22;2007;48.750;9.278;2023-03-12T09:51:16;12.90;49.60
3986;DHT22;2007;48.750;9.278;2023-03-12T09:53:48;13.00;49.60
3986;DHT22;2007;48.750;9.278;2023-03-12T09:56:20;13.00;49.70
3986;DHT22;2007;48.750;9.278;2023-03-12T09:58:48;13.00;49.70
3986;DHT22;2007;48.750;9.278;2023-03-12T10:01:31;13.00;49.70
3986;DHT22;2007;48.750;9.278;2023-03-12T10:04:23;13.00;49.70
3986;DHT22;2007;48.750;9.278;2023-03-12T10:06:55;12.90;49.60
3986;DHT22;2007;48.750;9.278;2023-03-12T10:09:44;12.90;49.60
3986;DHT22;2007;48.750;9.278;2023-03-12T10:12:21;12.90;49.60
3986;DHT22;2007;48.750;9.278;2023-03-12T10:15:00;12.90;49.70
3986;DHT22;2007;48.750;9.278;2023-03-12T10:17:40;12.90;49.70
3986;DHT22;2007;48.750;9.278;2023-03-12T10:20:30;12.90;49.70
3986;DHT22;2007;48.750;9.278;2023-03-12T10:23:07;12.90;49.70
3986;DHT22;2007;48.750;9.278;2023-03-12T10:25:39;12.90;49.70
3986;DHT22;2007;48.750;9.278;2023-03-12T10:28:15;12.90;49.70
3986;DHT22;2007;48.750;9.278;2023-03-12T10:30:49;12.90;49.70
3986;DHT22;2007;48.750;9.278;2023-03-12T10:33:19;12.90;49.70
3986;DHT22;2007;48.750;9.278;2023-03-12T10:35:47;12.90;49.70
3986;DHT22;2007;48.750;9.278;2023-03-12T10:38:20;12.90;49.70
3986;DHT22;2007;48.750;9.278;2023-03-12T10:40:52;12.90;49.80
3986;DHT22;2007;48.750;9.278;2023-03-12T10:43:20;12.90;49.70
3986;DHT22;2007;48.750;9.278;2023-03-12T10:45:58;12.90;49.80
3986;DHT22;2007;48.750;9.278;2023-03-12T10:48:28;12.90;49.80
3986;DHT22;2007;48.750;9.278;2023-03-12T10:51:01;12.90;49.80
3986;DHT22;2007;48.750;9.278;2023-03-12T10:53:31;12.90;49.80
3986;DHT22;2007;48.750;9.278;2023-03-12T10:56:04;12.90;49.80
3986;DHT22;2007;48.750;9.278;2023-03-12T10:58:35;12.90;49.80
3986;DHT22;2007;48.750;9.278;2023-03-12T11:01:04;12.90;49.80
3986;DHT22;2007;48.750;9.278;2023-03-12T11:03:33;12.90;49.80
3986;DHT22;2007;48.750;9.278;2023-03-12T11:06:02;12.90;49.90
3986;DHT22;2007;48.750;9.278;2023-03-12T11:08:35;12.90;49.90
3986;DHT22;2007;48.750;9.278;2023-03-12T11:11:05;12.90;49.90
3986;DHT22;2007;48.750;9.278;2023-03-12T11:13:34;12.90;49.90
3986;DHT22;2007;48.750;9.278;2023-03-12T11:16:03;12.90;49.90
3986;DHT22;2007;48.750;9.278;2023-03-12T11:18:53;12.90;50.50
3986;DHT22;2007;48.750;9.278;2023-03-12T11:21:22;12.90;49.90
3986;DHT22;2007;48.750;9.278;2023-03-12T11:24:05;12.90;49.90
3986;DHT22;2007;48.750;9.278;2023-03-12T11:26:38;12.90;49.90
3986;DHT22;2007;48.750;9.278;2023-03-12T11:29:17;12.90;50.00
3986;DHT22;2007;48.750;9.278;2023-03-12T11:31:56;12.90;49.90
3986;DHT22;2007;48.750;9.278;2023-03-12T11:34:28;12.90;49.90
3986;DHT22;2007;48.750;9.278;2023-03-12T11:37:03;12.90;49.90
3986;DHT22;2007;48.750;9.278;2023-03-12T11:39:40;12.90;49.90
3986;DHT22;2007;48.750;9.278;2023-03-12T11:42:22;12.90;50.00
3986;DHT22;2007;48.750;9.278;2023-03-12T11:45:00;12.90;50.00
3986;DHT22;2007;48.750;9.278;2023-03-12T11:47:42;12.90;50.00
3986;DHT22;2007;48.750;9.278;2023-03-12T11:50:26;12.90;50.00
3986;DHT22;2007;48.750;9.278;2023-03-12T11:53:09;12.90;50.00
3986;DHT22;2007;48.750;9.278;2023-03-12T11:55:55;12.90;50.00
3986;DHT22;2007;48.750;9.278;2023-03-12T11:58:44;12.90;50.00
3986;DHT22;2007;48.750;9.278;2023-03-12T12:01:20;12.90;50.00
3986;DHT22;2007;48.750;9.278;2023-03-12T12:04:22;12.90;50.00
3986;DHT22;2007;48.750;9.278;2023-03-12T12:06:58;12.90;50.10
3986;DHT22;2007;48.750;9.278;2023-03-12T12:09:35;13.00;50.10
3986;DHT22;2007;48.750;9.278;2023-03-12T12:12:14;12.90;50.10
3986;DHT22;2007;48.750;9.278;2023-03-12T12:15:00;13.00;50.20
3986;DHT22;2007;48.750;9.278;2023-03-12T12:17:39;13.00;50.20
3986;DHT22;2007;48.750;9.278;2023-03-12T12:20:18;13.00;50.20
3986;DHT22;2007;48.750;9.278;2023-03-12T12:23:00;13.00;50.20
3986;DHT22;2007;48.750;9.278;2023-03-12T12:25:38;13.00;50.20
3986;DHT22;2007;48.750;9.278;2023-03-12T12:28:21;13.00;50.20
3986;DHT22;2007;48.750;9.278;2023-03-12T12:31:07;13.00;50.20
3986;DHT22;2007;48.750;9.278;2023-03-12T12:33:48;13.00;50.20
3986;DHT22;2007;48.750;9.278;2023-03-12T12:36:18;13.00;50.20
3986;DHT22;2007;48.750;9.278;2023-03-12T12:38:51;13.00;50.20
3986;DHT22;2007;48.750;9.278;2023-03-12T12:41:23;13.00;50.30
3986;DHT22;2007;48.750;9.278;2023-03-12T12:43:55;13.00;50.30
3986;DHT22;2007;48.750;9.278;2023-03-12T12:46:29;13.00;50.30
3986;DHT22;2007;48.750;9.278;2023-03-12T12:49:01;13.00;50.30
3986;DHT22;2007;48.750;9.278;2023-03-12T12:51:33;13.00;50.90
3986;DHT22;2007;48.750;9.278;2023-03-12T12:54:05;13.00;50.30
3986;DHT22;2007;48.750;9.278;2023-03-12T12:56:42;13.00;50.30
3986;DHT22;2007;48.750;9.278;2023-03-12T12:59:30;13.00;50.30
3986;DHT22;2007;48.750;9.278;2023-03-12T13:02:02;13.00;50.30
3986;DHT22;2007;48.750;9.278;2023-03-12T13:04:33;13.00;50.30
3986;DHT22;2007;48.750;9.278;2023-03-12T13:07:03;13.00;50.30
3986;DHT22;2007;48.750;9.278;2023-03-12T13:09:37;13.00;50.40
3986;DHT22;2007;48.750;9.278;2023-03-12T13:12:13;13.00;50.30
3986;DHT22;2007;48.750;9.278;2023-03-12T13:14:43;13.00;50.30
3986;DHT22;2007;48.750;9.278;2023-03-12T13:17:25;13.00;50.40
3986;DHT22;2007;48.750;9.278;2023-03-12T13:19:58;13.00;50.40
3986;DHT22;2007;48.750;9.278;2023-03-12T13:22:42;13.00;50.40
3986;DHT22;2007;48.750;9.278;2023-03-12T13:25:23;13.00;50.40
3986;DHT22;2007;48.750;9.278;2023-03-12T13:27:57;13.00;50.40
3986;DHT22;2007;48.750;9.278;2023-03-12T13:30:44;13.00;50.40
3986;DHT22;2007;48.750;9.278;2023-03-12T13:33:15;13.00;51.00
3986;DHT22;2007;48.750;9.278;2023-03-12T13:36:01;13.00;50.40
3986;DHT22;2007;48.750;9.278;2023-03-12T13:38:34;13.00;50.40
3986;DHT22;2007;48.750;9.278;2023-03-12T13:41:05;13.00;50.40
3986;DHT22;2007;48.750;9.278;2023-03-12T13:43:48;13.00;50.40
3986;DHT22;2007;48.750;9.278;2023-03-12T13:46:27;13.00;50.40
3986;DHT22;2007;48.750;9.278;2023-03-12T13:49:01;13.00;51.00
3986;DHT22;2007;48.750;9.278;2023-03-12T13:51:30;13.00;50.40
3986;DHT22;2007;48.750;9.278;2023-03-12T13:54:00;13.00;50.40
3986;DHT22;2007;48.750;9.278;2023-03-12T13:56:30;13.00;50.40
3986;DHT22;2007;48.750;9.278;2023-03-12T13:59:01;13.00;50.40
3986;DHT22;2007;48.750;9.278;2023-03-12T14:01:30;13.00;50.40
3986;DHT22;2007;48.750;9.278;2023-03-12T14:04:06;13.00;50.40
3986;DHT22;2007;48.750;9.278;2023-03-12T14:06:50;13.00;50.40
3986;DHT22;2007;48.750;9.278;2023-03-12T14:09:24;13.00;50.40
3986;DHT22;2007;48.750;9.278;2023-03-12T14:12:02;13.00;50.40
3986;DHT22;2007;48.750;9.278;2023-03-12T14:14:53;13.00;50.40
3986;DHT22;2007;48.750;9.278;2023-03-12T14:17:27;13.00;50.40
3986;DHT22;2007;48.750;9.278;2023-03-12T14:20:00;13.00;50.40
3986;DHT22;2007;48.750;9.278;2023-03-12T14:22:32;13.00;50.40
3986;DHT22;2007;48.750;9.278;2023-03-12T14:25:05;13.00;50.40
3986;DHT22;2007;48.750;9.278;2023-03-12T14:27:38;13.00;50.40
3986;DHT22;2007;48.750;9.278;2023-03-12T14:30:11;13.00;50.40
3986;DHT22;2007;48.750;9.278;2023-03-12T14:32:41;13.00;50.40
3986;DHT22;2007;48.750;9.278;2023-03-12T14:35:16;13.00;50.40
3986;DHT22;2007;48.750;9.278;2023-03-12T14:37:51;13.00;50.40
3986;DHT22;2007;48.750;9.278;2023-03-12T14:40:23;13.00;50.40
3986;DHT22;2007;48.750;9.278;2023-03-12T14:42:52;13.00;50.40
3986;DHT22;2007;48.750;9.278;2023-03-12T14:45:22;13.00;50.40
3986;DHT22;2007;48.750;9.278;2023-03-12T14:47:52;13.00;50.40
3986;DHT22;2007;48.750;9.278;2023-03-12T14:50:23;13.00;50.50
3986;DHT22;2007;48.750;9.278;2023-03-12T14:52:52;13.00;50.40
3986;DHT22;2007;48.750;9.278;2023-03-12T14:55:22;13.00;50.50
3986;DHT22;2007;48.750;9.278;2023-03-12T14:58:03;13.00;50.40
3986;DHT22;2007;48.750;9.278;2023-03-12T15:00:31;13.00;50.40
3986;DHT22;2007;48.750;9.278;2023-03-12T15:03:03;13.00;50.40
3986;DHT22;2007;48.750;9.278;2023-03-12T15:05:34;13.00;50.50
3986;DHT22;2007;48.750;9.278;2023-03-12T15:08:02;13.00;50.40
3986;DHT22;2007;48.750;9.278;2023-03-12T15:10:31;13.00;50.40
3986;DHT22;2007;48.750;9.278;2023-03-12T15:13:01;13.00;50.40
3986;DHT22;2007;48.750;9.278;2023-03-12T15:15:34;13.10;50.60
3986;DHT22;2007;48.750;9.278;2023-03-12T15:18:04;13.00;50.50
3986;DHT22;2007;48.750;9.278;2023-03-12T15:20:34;13.10;50.60
3986;DHT22;2007;48.750;9.278;2023-03-12T15:23:03;13.10;50.60
3986;DHT22;2007;48.750;9.278;2023-03-12T15:25:33;13.10;50.60
3986;DHT22;2007;48.750;9.278;2023-03-12T15:28:04;13.10;50.60
3986;DHT22;2007;48.750;9.278;2023-03-12T15:30:33;13.10;50.60
3986;DHT22;2007;48.750;9.278;2023-03-12T15:33:07;13.10;50.60
3986;DHT22;2007;48.750;9.278;2023-03-12T15:35:38;13.10;50.60
3986;DHT22;2007;48.750;9.278;2023-03-12T15:38:14;13.10;50.60
3986;DHT22;2007;48.750;9.278;2023-03-12T15:40:47;13.10;51.20
3986;DHT22;2007;48.750;9.278;2023-03-12T15:43:18;13.10;50.60
3986;DHT22;2007;48.750;9.278;2023-03-12T15:45:47;13.10;50.60
3986;DHT22;2007;48.750;9.278;2023-03-12T15:48:22;13.10;50.60
3986;DHT22;2007;48.750;9.278;2023-03-12T15:50:53;13.10;50.60
3986;DHT22;2007;48.750;9.278;2023-03-12T15:53:26;13.10;50.60
3986;DHT22;2007;48.750;9.278;2023-03-12T15:56:01;13.10;50.60
3986;DHT22;2007;48.750;9.278;2023-03-12T15:58:30;13.10;50.60
3986;DHT22;2007;48.750;9.278;2023-03-12T16:01:09;13.10;50.60
3986;DHT22;2007;48.750;9.278;2023-03-12T16:03:38;13.10;50.60
3986;DHT22;2007;48.750;9.278;2023-03-12T16:06:12;13.10;50.60
3986;DHT22;2007;48.750;9.278;2023-03-12T16:08:43;13.10;50.60
3986;DHT22;2007;48.750;9.278;2023-03-12T16:11:15;13.10;50.60
3986;DHT22;2007;48.750;9.278;2023-03-12T16:13:45;13.10;50.60
3986;DHT22;2007;48.750;9.278;2023-03-12T16:16:14;13.10;50.60
3986;DHT22;2007;48.750;9.278;2023-03-12T16:18:42;13.10;50.60
3986;DHT22;2007;48.750;9.278;2023-03-12T16:21:12;13.10;50.60
3986;DHT22;2007;48.750;9.278;2023-03-12T16:23:40;13.10;50.60
3986;DHT22;2007;48.750;9.278;2023-03-12T16:26:07;13.10;50.60